createdAt,value
2017-05-28T00:01:44.339Z,21.30
2017-05-28T00:04:13.146Z,21.40
2017-05-28T00:06:41.987Z,21.30
2017-05-28T00:09:10.796Z,21.30
2017-05-28T00:11:39.607Z,21.20
2017-05-28T00:14:08.451Z,21.30
2017-05-28T00:16:36.904Z,21.30
2017-05-28T00:19:05.704Z,21.20
2017-05-28T00:21:34.616Z,21.20
2017-05-28T00:24:03.060Z,21.20
2017-05-28T00:26:31.870Z,21.20
2017-05-28T00:29:00.701Z,21.20
2017-05-28T00:31:29.536Z,21.20
2017-05-28T00:33:58.352Z,21.20
2017-05-28T00:36:27.163Z,21.20
2017-05-28T00:38:56.031Z,21.20
2017-05-28T00:41:24.482Z,21.20
2017-05-28T00:43:53.275Z,21.20
2017-05-28T00:46:22.127Z,21.10
2017-05-28T00:48:50.939Z,21.10
2017-05-28T00:51:19.747Z,21.10
2017-05-28T00:53:48.602Z,21.10
2017-05-28T00:56:17.412Z,21.10
2017-05-28T00:58:46.239Z,21.10
2017-05-28T01:01:15.074Z,21.10
2017-05-28T01:03:43.891Z,21.00
2017-05-28T01:06:12.329Z,20.90
2017-05-28T01:08:41.165Z,20.80
2017-05-28T01:11:09.966Z,20.80
2017-05-28T01:13:38.783Z,20.80
2017-05-28T01:16:07.627Z,20.80
2017-05-28T01:18:36.434Z,20.80
2017-05-28T01:21:05.259Z,20.70
2017-05-28T01:23:34.126Z,20.70
2017-05-28T01:26:02.952Z,20.60
2017-05-28T01:28:31.775Z,20.60
2017-05-28T01:31:00.603Z,20.50
2017-05-28T01:33:29.426Z,20.50
2017-05-28T01:35:58.240Z,20.40
2017-05-28T01:38:27.139Z,20.40
2017-05-28T01:40:55.951Z,20.40
2017-05-28T01:43:24.806Z,20.20
2017-05-28T01:45:53.658Z,20.00
2017-05-28T01:48:22.464Z,20.10
2017-05-28T01:50:51.279Z,20.10
2017-05-28T01:53:20.125Z,20.00
2017-05-28T01:55:48.943Z,20.00
2017-05-28T01:58:17.781Z,19.90
2017-05-28T02:00:46.623Z,19.90
2017-05-28T02:03:15.441Z,19.80
2017-05-28T02:05:44.285Z,19.80
2017-05-28T02:08:13.139Z,19.80
2017-05-28T02:10:41.974Z,19.70
2017-05-28T02:13:10.804Z,19.60
2017-05-28T02:15:38.880Z,19.60
2017-05-28T02:18:07.683Z,19.60
2017-05-28T02:20:36.536Z,19.60
2017-05-28T02:23:05.354Z,19.60
2017-05-28T02:25:34.166Z,19.50
2017-05-28T02:28:03.016Z,19.50
2017-05-28T02:30:31.855Z,19.40
2017-05-28T02:33:00.671Z,19.40
2017-05-28T02:35:29.508Z,19.40
2017-05-28T02:37:58.363Z,19.30
2017-05-28T02:40:27.188Z,19.20
2017-05-28T02:42:56.010Z,19.20
2017-05-28T02:45:24.870Z,19.20
2017-05-28T02:47:53.701Z,19.20
2017-05-28T02:50:22.512Z,19.20
2017-05-28T02:52:51.360Z,19.10
2017-05-28T02:55:20.987Z,19.00
2017-05-28T02:57:49.819Z,18.90
2017-05-28T03:00:18.653Z,19.00
2017-05-28T03:02:47.464Z,18.90
2017-05-28T03:05:16.328Z,18.90
2017-05-28T03:07:45.155Z,19.00
2017-05-28T03:10:13.979Z,19.00
2017-05-28T03:12:42.052Z,19.00
2017-05-28T03:15:10.879Z,18.90
2017-05-28T03:17:39.697Z,19.00
2017-05-28T03:20:08.536Z,18.90
2017-05-28T03:22:36.611Z,18.90
2017-05-28T03:25:05.432Z,18.90
2017-05-28T03:27:34.296Z,18.90
2017-05-28T03:30:03.097Z,19.00
2017-05-28T03:32:31.933Z,19.10
2017-05-28T03:35:00.779Z,19.20
2017-05-28T03:37:29.620Z,19.20
2017-05-28T03:39:58.901Z,19.30
2017-05-28T03:42:27.746Z,19.30
2017-05-28T03:44:56.660Z,19.30
2017-05-28T03:47:25.470Z,19.30
2017-05-28T03:49:53.539Z,19.30
2017-05-28T03:52:22.375Z,19.30
2017-05-28T03:54:51.232Z,19.30
2017-05-28T03:57:20.043Z,19.30
2017-05-28T03:59:48.935Z,19.30
2017-05-28T04:02:17.797Z,19.40
2017-05-28T04:04:46.626Z,19.30
2017-05-28T04:07:15.453Z,19.40
2017-05-28T04:09:43.538Z,19.30
2017-05-28T04:12:12.355Z,19.40
2017-05-28T04:14:40.395Z,19.40
2017-05-28T04:17:09.233Z,19.50
2017-05-28T04:19:38.064Z,19.50
2017-05-28T04:22:06.879Z,19.50
2017-05-28T04:24:35.724Z,19.40
2017-05-28T04:27:04.535Z,19.50
2017-05-28T04:29:33.381Z,19.50
2017-05-28T04:32:02.239Z,19.60
2017-05-28T04:34:31.063Z,19.50
2017-05-28T04:36:59.882Z,19.50
2017-05-28T04:39:28.719Z,19.90
2017-05-28T04:41:57.560Z,19.50
2017-05-28T04:44:26.399Z,19.50
2017-05-28T04:46:55.211Z,19.50
2017-05-28T04:49:24.056Z,19.60
2017-05-28T04:51:52.875Z,19.60
2017-05-28T04:54:21.703Z,19.60
2017-05-28T04:56:50.572Z,19.60
2017-05-28T04:59:19.398Z,19.70
2017-05-28T05:01:48.211Z,19.80
2017-05-28T05:04:17.057Z,19.90
2017-05-28T05:06:45.872Z,20.00
2017-05-28T05:09:14.708Z,20.20
2017-05-28T05:11:43.522Z,20.20
2017-05-28T05:14:12.372Z,20.30
2017-05-28T05:16:41.185Z,20.30
2017-05-28T05:19:10.013Z,20.40
2017-05-28T05:21:38.868Z,20.40
2017-05-28T05:24:07.737Z,20.50
2017-05-28T05:26:36.496Z,20.60
2017-05-28T05:29:05.337Z,20.70
2017-05-28T05:31:34.179Z,20.70
2017-05-28T05:34:03.037Z,20.80
2017-05-28T05:36:31.882Z,20.80
2017-05-28T05:39:00.708Z,20.80
2017-05-28T05:41:29.556Z,20.90
2017-05-28T05:43:58.367Z,21.00
2017-05-28T05:46:27.207Z,21.00
2017-05-28T05:48:56.042Z,21.20
2017-05-28T05:51:24.886Z,21.30
2017-05-28T05:53:53.804Z,21.50
2017-05-28T05:56:22.594Z,21.60
2017-05-28T05:58:51.432Z,21.70
2017-05-28T06:01:20.258Z,21.80
2017-05-28T06:03:49.071Z,21.80
2017-05-28T06:06:17.907Z,22.00
2017-05-28T06:08:45.977Z,22.00
2017-05-28T06:11:14.829Z,22.00
2017-05-28T06:13:43.645Z,22.10
2017-05-28T06:16:12.514Z,22.20
2017-05-28T06:18:41.327Z,22.30
2017-05-28T06:21:10.157Z,22.50
2017-05-28T06:23:39.127Z,22.70
2017-05-28T06:26:07.949Z,22.80
2017-05-28T06:28:36.799Z,22.80
2017-05-28T06:31:06.574Z,22.90
2017-05-28T06:33:35.450Z,23.00
2017-05-28T06:36:04.247Z,23.10
2017-05-28T06:38:33.103Z,23.20
2017-05-28T06:41:01.950Z,23.30
2017-05-28T06:43:30.777Z,23.30
2017-05-28T06:45:59.593Z,23.30
2017-05-28T06:48:28.420Z,23.60
2017-05-28T06:50:57.265Z,23.70
2017-05-28T06:53:26.110Z,23.70
2017-05-28T06:55:54.907Z,23.80
2017-05-28T06:58:23.775Z,23.90
2017-05-28T07:00:52.631Z,24.00
2017-05-28T07:03:21.454Z,24.10
2017-05-28T07:05:50.304Z,24.20
2017-05-28T07:08:19.110Z,24.40
2017-05-28T07:10:47.936Z,24.60
2017-05-28T07:13:16.795Z,24.70
2017-05-28T07:18:48.802Z,24.60
2017-05-28T07:21:17.062Z,24.40
2017-05-28T07:23:45.290Z,24.50
2017-05-28T07:26:13.566Z,24.70
2017-05-28T07:28:42.299Z,24.90
2017-05-28T07:31:11.151Z,25.10
2017-05-28T07:33:39.967Z,25.00
2017-05-28T07:36:08.779Z,25.10
2017-05-28T07:38:37.641Z,25.20
2017-05-28T07:41:06.477Z,25.20
2017-05-28T07:43:35.289Z,25.50
2017-05-28T07:46:04.116Z,25.60
2017-05-28T07:48:32.955Z,25.60
2017-05-28T07:51:01.776Z,25.70
2017-05-28T07:53:30.602Z,25.90
2017-05-28T07:55:59.443Z,26.20
2017-05-28T07:58:28.277Z,26.40
2017-05-28T08:00:57.098Z,26.50
2017-05-28T08:03:25.952Z,26.60
2017-05-28T08:05:54.764Z,26.60
2017-05-28T08:08:23.618Z,26.70
2017-05-28T08:10:52.437Z,26.70
2017-05-28T08:13:21.292Z,27.20
2017-05-28T08:15:50.122Z,27.20
2017-05-28T08:18:18.935Z,27.50
2017-05-28T08:20:47.772Z,27.50
2017-05-28T08:23:16.620Z,27.50
2017-05-28T08:25:45.462Z,27.80
2017-05-28T08:28:14.279Z,28.00
2017-05-28T08:30:43.126Z,28.20
2017-05-28T08:33:11.979Z,28.20
2017-05-28T08:35:40.783Z,28.30
2017-05-28T08:38:09.654Z,28.30
2017-05-28T08:40:38.466Z,28.50
2017-05-28T08:43:07.282Z,28.80
2017-05-28T08:45:36.236Z,28.90
2017-05-28T08:48:05.068Z,29.10
2017-05-28T08:50:33.915Z,29.10
2017-05-28T08:53:02.787Z,29.00
2017-05-28T08:55:31.599Z,29.20
2017-05-28T08:58:00.460Z,29.50
2017-05-28T09:00:29.290Z,29.70
2017-05-28T09:02:58.103Z,29.80
2017-05-28T09:05:26.956Z,29.90
2017-05-28T09:07:55.780Z,29.90
2017-05-28T09:10:24.599Z,30.20
2017-05-28T09:12:53.456Z,30.30
2017-05-28T09:15:22.297Z,30.20
2017-05-28T09:17:51.106Z,30.50
2017-05-28T09:20:19.938Z,30.60
2017-05-28T09:22:48.750Z,30.40
2017-05-28T09:25:17.604Z,30.50
2017-05-28T09:27:46.427Z,30.50
2017-05-28T09:30:15.243Z,30.70
2017-05-28T09:32:44.107Z,30.80
2017-05-28T09:35:12.932Z,30.80
2017-05-28T09:37:41.743Z,31.10
2017-05-28T09:40:10.619Z,31.20
2017-05-28T09:42:39.435Z,31.40
2017-05-28T09:45:08.256Z,31.60
2017-05-28T09:47:37.111Z,31.70
2017-05-28T09:50:05.984Z,31.80
2017-05-28T09:52:34.792Z,31.80
2017-05-28T09:55:03.706Z,32.00
2017-05-28T09:57:32.519Z,32.40
2017-05-28T10:00:01.339Z,32.60
2017-05-28T10:02:30.173Z,32.80
2017-05-28T10:04:59.071Z,33.00
2017-05-28T10:07:27.876Z,33.00
2017-05-28T10:09:56.705Z,33.10
2017-05-28T10:12:25.567Z,33.40
2017-05-28T10:14:54.485Z,33.60
2017-05-28T10:17:23.282Z,33.70
2017-05-28T10:19:52.120Z,33.80
2017-05-28T10:22:20.973Z,33.90
2017-05-28T10:24:49.833Z,34.20
2017-05-28T10:27:18.720Z,34.30
2017-05-28T10:29:47.556Z,34.30
2017-05-28T10:32:16.412Z,34.40
2017-05-28T10:34:45.241Z,34.20
2017-05-28T10:37:14.051Z,34.00
2017-05-28T10:39:42.933Z,34.30
2017-05-28T10:42:11.763Z,34.40
2017-05-28T10:44:40.624Z,34.80
2017-05-28T10:47:09.492Z,35.40
2017-05-28T10:49:38.333Z,35.60
2017-05-28T10:52:07.149Z,35.30
2017-05-28T10:54:36.013Z,35.20
2017-05-28T10:57:04.841Z,35.40
2017-05-28T10:59:33.664Z,35.20
2017-05-28T11:02:02.522Z,35.50
2017-05-28T11:04:31.343Z,35.90
2017-05-28T11:07:00.219Z,36.40
2017-05-28T11:09:28.285Z,36.40
2017-05-28T11:11:57.127Z,35.90
2017-05-28T11:14:25.968Z,36.00
2017-05-28T11:16:54.783Z,36.00
2017-05-28T11:19:23.609Z,35.70
2017-05-28T11:21:53.025Z,35.70
2017-05-28T11:24:21.856Z,35.90
2017-05-28T11:26:50.674Z,36.20
2017-05-28T11:29:19.599Z,36.60
2017-05-28T11:31:48.435Z,36.70
2017-05-28T11:34:17.246Z,36.90
2017-05-28T11:36:46.139Z,37.20
2017-05-28T11:39:14.923Z,37.70
2017-05-28T11:41:43.757Z,38.00
2017-05-28T11:44:12.595Z,37.60
2017-05-28T11:46:41.407Z,36.90
2017-05-28T11:49:10.259Z,36.90
2017-05-28T11:51:39.093Z,37.30
2017-05-28T11:54:07.904Z,37.70
2017-05-28T11:56:36.764Z,38.10
2017-05-28T11:59:05.535Z,37.90
2017-05-28T12:01:34.381Z,38.10
2017-05-28T12:04:03.206Z,38.00
2017-05-28T12:06:32.067Z,37.50
2017-05-28T12:09:00.925Z,37.00
2017-05-28T12:11:29.735Z,36.90
2017-05-28T12:13:58.990Z,37.60
2017-05-28T12:16:27.788Z,37.80
2017-05-28T12:18:56.619Z,38.30
2017-05-28T12:21:25.456Z,37.90
2017-05-28T12:23:54.323Z,37.50
2017-05-28T12:26:23.135Z,37.10
2017-05-28T12:28:51.946Z,36.80
2017-05-28T12:31:20.816Z,36.70
2017-05-28T12:33:49.658Z,36.60
2017-05-28T12:36:18.487Z,37.00
2017-05-28T12:38:47.316Z,37.10
2017-05-28T12:41:16.143Z,37.40
2017-05-28T12:43:45.065Z,37.60
2017-05-28T12:46:13.882Z,37.90
2017-05-28T12:48:42.707Z,37.90
2017-05-28T12:51:11.547Z,38.50
2017-05-28T12:53:40.411Z,38.60
2017-05-28T12:56:09.183Z,38.60
2017-05-28T12:58:38.032Z,39.50
2017-05-28T13:01:06.871Z,40.00
2017-05-28T13:03:35.683Z,39.90
2017-05-28T13:06:04.499Z,40.10
2017-05-28T13:08:33.371Z,40.40
2017-05-28T13:11:02.199Z,40.30
2017-05-28T13:13:31.020Z,39.50
2017-05-28T13:15:59.849Z,38.80
2017-05-28T13:18:28.682Z,39.00
2017-05-28T13:20:57.511Z,38.60
2017-05-28T13:23:26.388Z,38.70
2017-05-28T13:25:55.240Z,38.90
2017-05-28T13:28:24.047Z,39.10
2017-05-28T13:30:52.929Z,39.30
2017-05-28T13:33:21.761Z,39.50
2017-05-28T13:35:50.585Z,39.20
2017-05-28T13:38:19.407Z,39.20
2017-05-28T13:40:48.215Z,39.30
2017-05-28T13:43:17.064Z,39.40
2017-05-28T13:45:45.896Z,39.90
2017-05-28T13:48:14.715Z,40.20
2017-05-28T13:50:43.598Z,40.10
2017-05-28T13:53:12.451Z,40.20
2017-05-28T13:55:41.270Z,40.30
2017-05-28T13:58:10.102Z,40.30
2017-05-28T14:00:38.911Z,40.00
2017-05-28T14:03:07.746Z,39.60
2017-05-28T14:05:36.608Z,39.30
2017-05-28T14:08:05.424Z,39.20
2017-05-28T14:10:34.236Z,39.20
2017-05-28T14:13:03.083Z,39.40
2017-05-28T14:15:31.924Z,40.00
2017-05-28T14:18:00.757Z,40.40
2017-05-28T14:20:29.603Z,40.50
2017-05-28T14:22:58.427Z,40.10
2017-05-28T14:25:27.244Z,40.00
2017-05-28T14:27:56.107Z,39.90
2017-05-28T14:30:24.906Z,39.70
2017-05-28T14:32:53.723Z,40.00
2017-05-28T14:35:22.570Z,39.70
2017-05-28T14:37:51.444Z,39.40
2017-05-28T14:40:20.303Z,39.10
2017-05-28T14:42:49.211Z,39.30
2017-05-28T14:45:18.083Z,39.10
2017-05-28T14:47:46.964Z,39.20
2017-05-28T14:50:15.754Z,39.60
2017-05-28T14:52:44.624Z,39.60
2017-05-28T14:55:13.417Z,39.50
2017-05-28T14:57:42.223Z,39.20
2017-05-28T15:00:11.059Z,39.30
2017-05-28T15:02:39.875Z,39.30
2017-05-28T15:05:08.728Z,39.40
2017-05-28T15:07:37.539Z,39.60
2017-05-28T15:10:06.361Z,39.10
2017-05-28T15:12:35.202Z,38.80
2017-05-28T15:15:04.024Z,39.10
2017-05-28T15:17:32.871Z,39.20
2017-05-28T15:20:01.720Z,39.40
2017-05-28T15:22:30.531Z,39.30
2017-05-28T15:24:59.409Z,39.10
2017-05-28T15:27:28.219Z,38.50
2017-05-28T15:29:57.074Z,37.60
2017-05-28T15:32:25.916Z,37.60
2017-05-28T15:34:54.786Z,37.50
2017-05-28T15:37:23.604Z,37.70
2017-05-28T15:39:52.431Z,37.80
2017-05-28T15:42:21.263Z,37.90
2017-05-28T15:44:50.105Z,37.80
2017-05-28T15:47:18.936Z,37.50
2017-05-28T15:49:47.747Z,36.90
2017-05-28T15:52:16.592Z,36.80
2017-05-28T15:54:45.413Z,36.50
2017-05-28T15:57:14.251Z,36.30
2017-05-28T15:59:43.094Z,35.80
2017-05-28T16:02:11.950Z,35.10
2017-05-28T16:04:40.811Z,34.50
2017-05-28T16:07:09.741Z,34.20
2017-05-28T16:09:38.706Z,33.70
2017-05-28T16:12:07.568Z,33.40
2017-05-28T16:14:36.342Z,33.20
2017-05-28T16:17:05.186Z,32.90
2017-05-28T16:19:34.018Z,32.80
2017-05-28T16:22:02.842Z,32.60
2017-05-28T16:24:31.671Z,32.40
2017-05-28T16:27:00.516Z,32.20
2017-05-28T16:29:29.354Z,32.00
2017-05-28T16:31:58.211Z,32.00
2017-05-28T16:34:27.017Z,32.00
2017-05-28T16:36:55.859Z,31.80
2017-05-28T16:39:24.682Z,31.70
2017-05-28T16:41:53.491Z,31.60
2017-05-28T16:44:22.331Z,31.50
2017-05-28T16:46:51.148Z,31.50
2017-05-28T16:49:19.963Z,31.40
2017-05-28T16:51:48.805Z,31.30
2017-05-28T16:54:17.644Z,31.40
2017-05-28T16:56:46.458Z,31.20
2017-05-28T16:59:15.288Z,31.20
2017-05-28T17:01:44.119Z,31.00
2017-05-28T17:04:12.950Z,30.90
2017-05-28T17:06:41.803Z,30.70
2017-05-28T17:09:10.623Z,30.50
2017-05-28T17:11:39.453Z,30.30
2017-05-28T17:14:08.321Z,30.20
2017-05-28T17:16:37.125Z,30.00
2017-05-28T17:19:05.940Z,29.70
2017-05-28T17:21:34.794Z,29.50
2017-05-28T17:24:03.620Z,29.10
2017-05-28T17:26:32.462Z,29.00
2017-05-28T17:29:01.295Z,29.00
2017-05-28T17:31:30.107Z,28.90
2017-05-28T17:33:58.948Z,28.90
2017-05-28T17:36:27.761Z,28.80
2017-05-28T17:38:56.658Z,28.70
2017-05-28T17:41:25.474Z,28.50
2017-05-28T17:43:54.332Z,28.40
2017-05-28T17:46:23.153Z,28.40
2017-05-28T17:48:51.975Z,28.30
2017-05-28T17:51:20.817Z,28.20
2017-05-28T17:53:49.637Z,28.20
2017-05-28T17:56:18.457Z,28.20
2017-05-28T17:58:47.387Z,28.10
2017-05-28T18:01:16.197Z,28.10
2017-05-28T18:03:45.090Z,27.90
2017-05-28T18:06:13.982Z,27.90
2017-05-28T18:08:42.867Z,27.90
2017-05-28T18:11:11.655Z,27.80
2017-05-28T18:13:40.550Z,27.80
2017-05-28T18:16:09.382Z,27.80
2017-05-28T18:18:38.201Z,27.70
2017-05-28T18:21:07.129Z,27.40
2017-05-28T18:23:35.931Z,27.10
2017-05-28T18:26:05.720Z,26.90
2017-05-28T18:28:34.544Z,26.70
2017-05-28T18:31:03.364Z,26.50
2017-05-28T18:33:32.256Z,26.30
2017-05-28T18:36:01.067Z,26.10
2017-05-28T18:38:29.879Z,26.00
2017-05-28T18:40:58.731Z,25.80
2017-05-28T18:43:27.741Z,25.50
2017-05-28T18:45:56.575Z,25.30
2017-05-28T18:48:25.418Z,25.10
2017-05-28T18:50:54.389Z,24.90
2017-05-28T18:53:23.184Z,24.70
2017-05-28T18:55:52.023Z,24.40
2017-05-28T18:58:20.844Z,24.30
2017-05-28T19:00:49.666Z,24.10
2017-05-28T19:03:18.543Z,24.00
2017-05-28T19:05:47.374Z,23.80
2017-05-28T19:08:16.194Z,23.70
2017-05-28T19:10:45.056Z,23.60
2017-05-28T19:13:13.872Z,23.60
2017-05-28T19:15:42.746Z,23.50
2017-05-28T19:18:11.583Z,23.40
2017-05-28T19:20:40.399Z,23.30
2017-05-28T19:23:08.484Z,23.30
2017-05-28T19:25:37.311Z,27.20
2017-05-28T19:28:06.132Z,23.20
2017-05-28T19:30:34.963Z,23.10
2017-05-28T19:33:03.324Z,23.00
2017-05-28T19:35:32.097Z,22.90
2017-05-28T19:38:00.903Z,22.70
2017-05-28T19:40:29.739Z,22.50
2017-05-28T19:42:58.555Z,22.40
2017-05-28T19:45:27.367Z,22.20
2017-05-28T19:47:56.212Z,22.10
2017-05-28T19:50:25.027Z,22.00
2017-05-28T19:52:53.893Z,22.00
2017-05-28T19:55:22.753Z,21.80
2017-05-28T19:57:51.556Z,21.70
2017-05-28T20:00:20.409Z,21.60
2017-05-28T20:02:49.249Z,21.60
2017-05-28T20:05:18.044Z,21.60
2017-05-28T20:07:46.915Z,21.50
2017-05-28T20:10:15.715Z,21.40
2017-05-28T20:12:44.527Z,21.30
2017-05-28T20:15:13.365Z,21.40
2017-05-28T20:17:41.707Z,21.30
2017-05-28T20:20:10.439Z,21.30
2017-05-28T20:22:39.333Z,21.40
2017-05-28T20:25:08.131Z,21.40
2017-05-28T20:27:36.944Z,21.40
2017-05-28T20:30:05.784Z,21.30
2017-05-28T20:35:12.234Z,21.40
2017-05-28T20:37:40.495Z,21.50
2017-05-28T20:40:08.814Z,21.50
2017-05-28T20:42:37.282Z,21.50
2017-05-28T20:45:05.526Z,21.50
2017-05-28T20:47:33.869Z,21.60
2017-05-28T20:50:02.242Z,21.60
2017-05-28T20:52:30.819Z,21.60
2017-05-28T20:54:59.094Z,21.70
2017-05-28T20:57:27.361Z,21.60
2017-05-28T20:59:55.616Z,21.40
2017-05-28T21:02:23.852Z,21.30
2017-05-28T21:04:52.146Z,21.20
2017-05-28T21:07:20.482Z,21.10
2017-05-28T21:09:48.771Z,21.00
2017-05-28T21:12:17.085Z,21.10
2017-05-28T21:14:45.340Z,21.00
2017-05-28T21:17:14.003Z,20.90
2017-05-28T21:19:42.263Z,20.90
2017-05-28T21:22:10.572Z,20.90
2017-05-28T21:24:38.947Z,20.90
2017-05-28T21:27:07.199Z,20.90
2017-05-28T21:29:35.562Z,20.90
2017-05-28T21:32:03.880Z,20.90
2017-05-28T21:34:32.114Z,20.80
2017-05-28T21:37:00.379Z,20.80
2017-05-28T21:39:28.648Z,20.80
2017-05-28T21:41:56.947Z,20.90
2017-05-28T21:44:25.314Z,20.90
2017-05-28T21:46:53.564Z,20.80
2017-05-28T21:49:21.880Z,20.70
2017-05-28T21:51:50.184Z,20.60
2017-05-28T21:56:47.668Z,20.60
2017-05-28T21:59:16.550Z,20.50
2017-05-28T22:01:45.405Z,20.50
2017-05-28T22:04:14.281Z,20.40
2017-05-28T22:06:42.667Z,20.40
2017-05-28T22:09:11.418Z,20.40
2017-05-28T22:11:40.240Z,20.20
2017-05-28T22:14:09.112Z,20.20
2017-05-28T22:16:38.003Z,20.20
2017-05-28T22:19:06.895Z,20.20
2017-05-28T22:21:35.739Z,20.20
2017-05-28T22:24:04.559Z,20.30
2017-05-28T22:26:32.915Z,20.20
2017-05-28T22:29:01.641Z,20.20
2017-05-28T22:31:29.966Z,20.30
2017-05-28T22:33:58.803Z,20.20
2017-05-28T22:36:27.626Z,20.20
2017-05-28T22:38:56.445Z,20.10
2017-05-28T22:41:25.415Z,20.00
2017-05-28T22:43:54.771Z,19.90
2017-05-28T22:46:23.590Z,19.90
2017-05-28T22:48:52.463Z,19.80
2017-05-28T22:51:21.304Z,19.80
2017-05-28T22:53:50.144Z,19.80
2017-05-28T22:56:18.983Z,19.90
2017-05-28T22:58:47.962Z,19.80
2017-05-28T23:01:16.815Z,19.80
2017-05-28T23:03:45.707Z,19.70
2017-05-28T23:06:14.591Z,19.70
2017-05-28T23:08:43.489Z,19.80
2017-05-28T23:11:11.819Z,19.80
2017-05-28T23:13:40.652Z,19.80
2017-05-28T23:16:09.051Z,19.90
2017-05-28T23:18:37.308Z,19.90
2017-05-28T23:21:05.550Z,19.90
2017-05-28T23:23:33.813Z,20.00
2017-05-28T23:26:02.158Z,19.90
2017-05-28T23:28:30.434Z,19.90
2017-05-28T23:30:58.715Z,19.80
2017-05-28T23:33:27.455Z,19.80
2017-05-28T23:35:55.778Z,19.80
2017-05-28T23:38:24.519Z,19.70
2017-05-28T23:40:52.845Z,19.70
2017-05-28T23:43:21.087Z,19.70
2017-05-28T23:45:49.394Z,19.70
2017-05-28T23:48:18.387Z,19.60
2017-05-28T23:50:46.734Z,19.70
2017-05-28T23:53:15.017Z,19.70
2017-05-28T23:55:43.310Z,19.70
2017-05-28T23:58:11.599Z,19.70
